sensor_id;sensor_type;location;lat;lon;timestamp;P1;durP1;ratioP1;P2;durP2;ratioP2
4911;SDS011;2471;47.056;8.350;2023-12-29T00:02:09;7.50;;;6.32;;
4911;SDS011;2471;47.056;8.350;2023-12-29T00:04:35;8.52;;;6.70;;
4911;SDS011;2471;47.056;8.350;2023-12-29T00:07:01;9.40;;;7.50;;
4911;SDS011;2471;47.056;8.350;2023-12-29T00:09:27;7.33;;;6.40;;
4911;SDS011;2471;47.056;8.350;2023-12-29T00:11:53;8.07;;;6.33;;
4911;SDS011;2471;47.056;8.350;2023-12-29T00:14:19;7.73;;;6.13;;
4911;SDS011;2471;47.056;8.350;2023-12-29T00:16:45;8.70;;;6.00;;
4911;SDS011;2471;47.056;8.350;2023-12-29T00:19:12;6.75;;;6.03;;
4911;SDS011;2471;47.056;8.350;2023-12-29T00:21:38;9.98;;;6.13;;
4911;SDS011;2471;47.056;8.350;2023-12-29T00:24:04;7.57;;;6.10;;
4911;SDS011;2471;47.056;8.350;2023-12-29T00:26:30;7.15;;;6.00;;
4911;SDS011;2471;47.056;8.350;2023-12-29T00:28:56;7.90;;;6.77;;
4911;SDS011;2471;47.056;8.350;2023-12-29T00:31:22;9.98;;;6.40;;
4911;SDS011;2471;47.056;8.350;2023-12-29T00:33:48;7.20;;;6.50;;
4911;SDS011;2471;47.056;8.350;2023-12-29T00:36:17;8.32;;;6.47;;
4911;SDS011;2471;47.056;8.350;2023-12-29T00:38:43;6.38;;;5.72;;
4911;SDS011;2471;47.056;8.350;2023-12-29T00:41:09;7.82;;;6.20;;
4911;SDS011;2471;47.056;8.350;2023-12-29T00:43:35;9.27;;;6.30;;
4911;SDS011;2471;47.056;8.350;2023-12-29T00:46:01;6.35;;;5.72;;
4911;SDS011;2471;47.056;8.350;2023-12-29T00:48:28;6.50;;;5.85;;
4911;SDS011;2471;47.056;8.350;2023-12-29T00:50:54;7.25;;;5.50;;
4911;SDS011;2471;47.056;8.350;2023-12-29T00:53:20;7.90;;;6.55;;
4911;SDS011;2471;47.056;8.350;2023-12-29T00:55:46;8.00;;;5.72;;
4911;SDS011;2471;47.056;8.350;2023-12-29T00:58:12;6.25;;;5.65;;
4911;SDS011;2471;47.056;8.350;2023-12-29T01:00:38;9.10;;;6.60;;
4911;SDS011;2471;47.056;8.350;2023-12-29T01:03:04;6.72;;;6.00;;
4911;SDS011;2471;47.056;8.350;2023-12-29T01:05:30;6.55;;;5.85;;
4911;SDS011;2471;47.056;8.350;2023-12-29T01:07:56;7.60;;;6.13;;
4911;SDS011;2471;47.056;8.350;2023-12-29T01:10:22;7.20;;;5.70;;
4911;SDS011;2471;47.056;8.350;2023-12-29T01:12:48;6.93;;;6.22;;
4911;SDS011;2471;47.056;8.350;2023-12-29T01:15:14;6.97;;;6.22;;
4911;SDS011;2471;47.056;8.350;2023-12-29T01:17:40;7.90;;;7.10;;
4911;SDS011;2471;47.056;8.350;2023-12-29T01:20:06;7.60;;;6.30;;
4911;SDS011;2471;47.056;8.350;2023-12-29T01:22:32;7.18;;;5.45;;
4911;SDS011;2471;47.056;8.350;2023-12-29T01:24:59;7.72;;;6.18;;
4911;SDS011;2471;47.056;8.350;2023-12-29T01:27:25;9.10;;;6.85;;
4911;SDS011;2471;47.056;8.350;2023-12-29T01:29:51;6.40;;;5.72;;
4911;SDS011;2471;47.056;8.350;2023-12-29T01:32:18;9.98;;;6.30;;
4911;SDS011;2471;47.056;8.350;2023-12-29T01:34:44;6.20;;;5.60;;
4911;SDS011;2471;47.056;8.350;2023-12-29T01:37:10;8.17;;;5.73;;
4911;SDS011;2471;47.056;8.350;2023-12-29T01:39:36;7.47;;;5.93;;
4911;SDS011;2471;47.056;8.350;2023-12-29T01:42:02;6.30;;;5.70;;
4911;SDS011;2471;47.056;8.350;2023-12-29T01:44:28;6.30;;;5.50;;
4911;SDS011;2471;47.056;8.350;2023-12-29T01:46:55;7.37;;;5.33;;
4911;SDS011;2471;47.056;8.350;2023-12-29T01:49:21;6.43;;;5.82;;
4911;SDS011;2471;47.056;8.350;2023-12-29T01:51:48;7.07;;;5.60;;
4911;SDS011;2471;47.056;8.350;2023-12-29T01:54:15;7.80;;;5.80;;
4911;SDS011;2471;47.056;8.350;2023-12-29T01:56:42;6.50;;;5.25;;
4911;SDS011;2471;47.056;8.350;2023-12-29T01:59:08;6.40;;;5.70;;
4911;SDS011;2471;47.056;8.350;2023-12-29T02:01:34;7.28;;;6.07;;
4911;SDS011;2471;47.056;8.350;2023-12-29T02:04:01;7.07;;;5.70;;
4911;SDS011;2471;47.056;8.350;2023-12-29T02:06:27;7.18;;;6.30;;
4911;SDS011;2471;47.056;8.350;2023-12-29T02:08:54;9.70;;;6.35;;
4911;SDS011;2471;47.056;8.350;2023-12-29T02:11:20;5.95;;;5.35;;
4911;SDS011;2471;47.056;8.350;2023-12-29T02:13:46;7.30;;;5.90;;
4911;SDS011;2471;47.056;8.350;2023-12-29T02:16:15;8.35;;;5.75;;
4911;SDS011;2471;47.056;8.350;2023-12-29T02:18:42;6.97;;;5.80;;
4911;SDS011;2471;47.056;8.350;2023-12-29T02:21:11;7.05;;;5.60;;
4911;SDS011;2471;47.056;8.350;2023-12-29T02:23:37;6.20;;;5.60;;
4911;SDS011;2471;47.056;8.350;2023-12-29T02:26:06;6.75;;;5.57;;
4911;SDS011;2471;47.056;8.350;2023-12-29T02:28:33;6.93;;;5.80;;
4911;SDS011;2471;47.056;8.350;2023-12-29T02:31:07;5.88;;;5.30;;
4911;SDS011;2471;47.056;8.350;2023-12-29T02:33:36;6.53;;;5.93;;
4911;SDS011;2471;47.056;8.350;2023-12-29T02:36:02;6.30;;;5.70;;
4911;SDS011;2471;47.056;8.350;2023-12-29T02:38:29;6.22;;;5.45;;
4911;SDS011;2471;47.056;8.350;2023-12-29T02:40:56;6.35;;;5.30;;
4911;SDS011;2471;47.056;8.350;2023-12-29T02:43:22;6.55;;;5.45;;
4911;SDS011;2471;47.056;8.350;2023-12-29T02:45:48;8.80;;;5.40;;
4911;SDS011;2471;47.056;8.350;2023-12-29T02:48:14;7.72;;;5.75;;
4911;SDS011;2471;47.056;8.350;2023-12-29T02:50:40;6.95;;;6.20;;
4911;SDS011;2471;47.056;8.350;2023-12-29T02:53:06;6.45;;;5.32;;
4911;SDS011;2471;47.056;8.350;2023-12-29T02:55:32;7.60;;;5.60;;
4911;SDS011;2471;47.056;8.350;2023-12-29T02:57:58;8.57;;;5.85;;
4911;SDS011;2471;47.056;8.350;2023-12-29T03:00:23;9.70;;;6.85;;
4911;SDS011;2471;47.056;8.350;2023-12-29T03:02:49;6.20;;;5.60;;
4911;SDS011;2471;47.056;8.350;2023-12-29T03:05:15;7.75;;;6.10;;
4911;SDS011;2471;47.056;8.350;2023-12-29T03:07:41;9.80;;;7.00;;
4911;SDS011;2471;47.056;8.350;2023-12-29T03:10:07;5.80;;;5.20;;
4911;SDS011;2471;47.056;8.350;2023-12-29T03:12:33;6.30;;;5.43;;
4911;SDS011;2471;47.056;8.350;2023-12-29T03:14:59;8.48;;;5.90;;
4911;SDS011;2471;47.056;8.350;2023-12-29T03:17:25;7.00;;;5.60;;
4911;SDS011;2471;47.056;8.350;2023-12-29T03:19:52;6.28;;;5.15;;
4911;SDS011;2471;47.056;8.350;2023-12-29T03:22:18;6.25;;;5.65;;
4911;SDS011;2471;47.056;8.350;2023-12-29T03:24:44;7.88;;;5.15;;
4911;SDS011;2471;47.056;8.350;2023-12-29T03:27:10;6.00;;;5.20;;
4911;SDS011;2471;47.056;8.350;2023-12-29T03:29:36;8.10;;;5.50;;
4911;SDS011;2471;47.056;8.350;2023-12-29T03:32:02;5.20;;;4.80;;
4911;SDS011;2471;47.056;8.350;2023-12-29T03:34:29;7.80;;;5.60;;
4911;SDS011;2471;47.056;8.350;2023-12-29T03:36:54;6.20;;;4.85;;
4911;SDS011;2471;47.056;8.350;2023-12-29T03:39:20;7.23;;;4.80;;
4911;SDS011;2471;47.056;8.350;2023-12-29T03:41:46;7.72;;;5.10;;
4911;SDS011;2471;47.056;8.350;2023-12-29T03:44:12;9.20;;;5.47;;
4911;SDS011;2471;47.056;8.350;2023-12-29T03:46:38;6.38;;;4.65;;
4911;SDS011;2471;47.056;8.350;2023-12-29T03:49:04;5.88;;;5.20;;
4911;SDS011;2471;47.056;8.350;2023-12-29T03:51:30;10.82;;;7.30;;
4911;SDS011;2471;47.056;8.350;2023-12-29T03:53:56;5.82;;;5.10;;
4911;SDS011;2471;47.056;8.350;2023-12-29T03:56:23;6.07;;;5.43;;
4911;SDS011;2471;47.056;8.350;2023-12-29T03:58:49;7.30;;;5.40;;
4911;SDS011;2471;47.056;8.350;2023-12-29T04:01:16;4.93;;;4.43;;
4911;SDS011;2471;47.056;8.350;2023-12-29T04:03:42;5.22;;;4.75;;
4911;SDS011;2471;47.056;8.350;2023-12-29T04:06:08;5.60;;;5.10;;
4911;SDS011;2471;47.056;8.350;2023-12-29T04:08:35;5.22;;;4.10;;
4911;SDS011;2471;47.056;8.350;2023-12-29T04:11:01;5.53;;;4.50;;
4911;SDS011;2471;47.056;8.350;2023-12-29T04:13:28;6.32;;;4.90;;
4911;SDS011;2471;47.056;8.350;2023-12-29T04:15:54;5.73;;;4.90;;
4911;SDS011;2471;47.056;8.350;2023-12-29T04:18:20;7.00;;;5.70;;
4911;SDS011;2471;47.056;8.350;2023-12-29T04:20:46;5.95;;;5.20;;
4911;SDS011;2471;47.056;8.350;2023-12-29T04:23:12;5.00;;;4.60;;
4911;SDS011;2471;47.056;8.350;2023-12-29T04:25:38;8.85;;;6.05;;
4911;SDS011;2471;47.056;8.350;2023-12-29T04:28:05;6.28;;;5.40;;
4911;SDS011;2471;47.056;8.350;2023-12-29T04:30:30;5.10;;;4.60;;
4911;SDS011;2471;47.056;8.350;2023-12-29T04:32:56;7.55;;;6.03;;
4911;SDS011;2471;47.056;8.350;2023-12-29T04:35:22;7.80;;;6.90;;
4911;SDS011;2471;47.056;8.350;2023-12-29T04:37:48;7.38;;;5.70;;
4911;SDS011;2471;47.056;8.350;2023-12-29T04:40:15;9.27;;;6.93;;
4911;SDS011;2471;47.056;8.350;2023-12-29T04:42:41;8.63;;;6.70;;
4911;SDS011;2471;47.056;8.350;2023-12-29T04:45:07;9.27;;;6.95;;
4911;SDS011;2471;47.056;8.350;2023-12-29T04:47:35;13.38;;;6.00;;
4911;SDS011;2471;47.056;8.350;2023-12-29T04:50:01;7.43;;;6.50;;
4911;SDS011;2471;47.056;8.350;2023-12-29T04:52:31;7.30;;;6.30;;
4911;SDS011;2471;47.056;8.350;2023-12-29T04:54:57;12.10;;;6.25;;
4911;SDS011;2471;47.056;8.350;2023-12-29T04:57:23;6.15;;;5.18;;
4911;SDS011;2471;47.056;8.350;2023-12-29T04:59:48;8.25;;;6.13;;
4911;SDS011;2471;47.056;8.350;2023-12-29T05:02:15;8.90;;;6.90;;
4911;SDS011;2471;47.056;8.350;2023-12-29T05:04:40;9.00;;;7.60;;
4911;SDS011;2471;47.056;8.350;2023-12-29T05:07:07;11.68;;;6.22;;
4911;SDS011;2471;47.056;8.350;2023-12-29T05:09:33;6.47;;;5.72;;
4911;SDS011;2471;47.056;8.350;2023-12-29T05:11:59;7.40;;;5.75;;
4911;SDS011;2471;47.056;8.350;2023-12-29T05:14:25;7.20;;;5.90;;
4911;SDS011;2471;47.056;8.350;2023-12-29T05:16:51;7.78;;;6.07;;
4911;SDS011;2471;47.056;8.350;2023-12-29T05:19:17;10.20;;;5.93;;
4911;SDS011;2471;47.056;8.350;2023-12-29T05:21:43;10.65;;;7.72;;
4911;SDS011;2471;47.056;8.350;2023-12-29T05:24:09;6.63;;;5.80;;
4911;SDS011;2471;47.056;8.350;2023-12-29T05:26:35;6.68;;;5.97;;
4911;SDS011;2471;47.056;8.350;2023-12-29T05:29:02;6.97;;;6.03;;
4911;SDS011;2471;47.056;8.350;2023-12-29T05:31:28;8.50;;;6.80;;
4911;SDS011;2471;47.056;8.350;2023-12-29T05:33:53;9.00;;;6.83;;
4911;SDS011;2471;47.056;8.350;2023-12-29T05:36:20;7.50;;;5.80;;
4911;SDS011;2471;47.056;8.350;2023-12-29T05:38:46;7.30;;;5.93;;
4911;SDS011;2471;47.056;8.350;2023-12-29T05:41:15;7.82;;;5.93;;
4911;SDS011;2471;47.056;8.350;2023-12-29T05:43:41;7.20;;;5.88;;
4911;SDS011;2471;47.056;8.350;2023-12-29T05:46:10;7.13;;;5.70;;
4911;SDS011;2471;47.056;8.350;2023-12-29T05:48:37;8.30;;;6.10;;
4911;SDS011;2471;47.056;8.350;2023-12-29T05:51:09;5.82;;;5.30;;
4911;SDS011;2471;47.056;8.350;2023-12-29T05:53:36;7.80;;;5.82;;
4911;SDS011;2471;47.056;8.350;2023-12-29T05:56:02;6.90;;;5.50;;
4911;SDS011;2471;47.056;8.350;2023-12-29T05:58:28;7.63;;;5.70;;
4911;SDS011;2471;47.056;8.350;2023-12-29T06:00:54;7.28;;;5.65;;
4911;SDS011;2471;47.056;8.350;2023-12-29T06:03:21;6.70;;;5.88;;
4911;SDS011;2471;47.056;8.350;2023-12-29T06:05:47;7.90;;;5.70;;
4911;SDS011;2471;47.056;8.350;2023-12-29T06:08:13;6.22;;;5.30;;
4911;SDS011;2471;47.056;8.350;2023-12-29T06:10:39;6.25;;;5.65;;
4911;SDS011;2471;47.056;8.350;2023-12-29T06:13:05;9.65;;;6.40;;
4911;SDS011;2471;47.056;8.350;2023-12-29T06:15:31;6.82;;;5.40;;
4911;SDS011;2471;47.056;8.350;2023-12-29T06:17:57;14.70;;;10.05;;
4911;SDS011;2471;47.056;8.350;2023-12-29T06:20:23;9.98;;;7.13;;
4911;SDS011;2471;47.056;8.350;2023-12-29T06:22:49;7.45;;;6.10;;
4911;SDS011;2471;47.056;8.350;2023-12-29T06:25:15;7.72;;;5.60;;
4911;SDS011;2471;47.056;8.350;2023-12-29T06:27:41;8.80;;;6.37;;
4911;SDS011;2471;47.056;8.350;2023-12-29T06:30:08;7.93;;;5.50;;
4911;SDS011;2471;47.056;8.350;2023-12-29T06:32:34;6.68;;;5.70;;
4911;SDS011;2471;47.056;8.350;2023-12-29T06:35:00;6.43;;;5.72;;
4911;SDS011;2471;47.056;8.350;2023-12-29T06:37:26;6.55;;;5.85;;
4911;SDS011;2471;47.056;8.350;2023-12-29T06:39:52;11.75;;;8.30;;
4911;SDS011;2471;47.056;8.350;2023-12-29T06:42:18;8.88;;;6.60;;
4911;SDS011;2471;47.056;8.350;2023-12-29T06:44:45;8.55;;;6.53;;
4911;SDS011;2471;47.056;8.350;2023-12-29T06:47:11;7.10;;;5.97;;
4911;SDS011;2471;47.056;8.350;2023-12-29T06:49:37;5.85;;;4.90;;
4911;SDS011;2471;47.056;8.350;2023-12-29T06:52:03;6.28;;;5.63;;
4911;SDS011;2471;47.056;8.350;2023-12-29T06:54:30;6.55;;;5.85;;
4911;SDS011;2471;47.056;8.350;2023-12-29T06:56:56;6.90;;;6.18;;
4911;SDS011;2471;47.056;8.350;2023-12-29T06:59:22;11.50;;;6.15;;
4911;SDS011;2471;47.056;8.350;2023-12-29T07:01:48;7.75;;;5.88;;
4911;SDS011;2471;47.056;8.350;2023-12-29T07:04:14;11.55;;;6.07;;
4911;SDS011;2471;47.056;8.350;2023-12-29T07:06:40;6.40;;;5.80;;
4911;SDS011;2471;47.056;8.350;2023-12-29T07:09:06;7.45;;;5.45;;
4911;SDS011;2471;47.056;8.350;2023-12-29T07:11:33;8.35;;;6.20;;
4911;SDS011;2471;47.056;8.350;2023-12-29T07:14:00;11.25;;;7.50;;
4911;SDS011;2471;47.056;8.350;2023-12-29T07:16:26;10.93;;;8.57;;
4911;SDS011;2471;47.056;8.350;2023-12-29T07:18:52;7.00;;;5.63;;
4911;SDS011;2471;47.056;8.350;2023-12-29T07:21:18;7.57;;;6.20;;
4911;SDS011;2471;47.056;8.350;2023-12-29T07:23:44;8.30;;;6.87;;
4911;SDS011;2471;47.056;8.350;2023-12-29T07:26:10;8.10;;;6.33;;
4911;SDS011;2471;47.056;8.350;2023-12-29T07:28:36;6.30;;;5.70;;
4911;SDS011;2471;47.056;8.350;2023-12-29T07:31:02;9.10;;;7.00;;
4911;SDS011;2471;47.056;8.350;2023-12-29T07:33:28;7.40;;;5.80;;
4911;SDS011;2471;47.056;8.350;2023-12-29T07:35:54;7.13;;;5.60;;
4911;SDS011;2471;47.056;8.350;2023-12-29T07:38:20;8.50;;;6.70;;
4911;SDS011;2471;47.056;8.350;2023-12-29T07:40:46;5.82;;;5.30;;
4911;SDS011;2471;47.056;8.350;2023-12-29T07:43:15;7.82;;;6.07;;
4911;SDS011;2471;47.056;8.350;2023-12-29T07:45:41;6.93;;;5.77;;
4911;SDS011;2471;47.056;8.350;2023-12-29T07:48:08;7.60;;;5.90;;
4911;SDS011;2471;47.056;8.350;2023-12-29T07:50:34;7.57;;;6.25;;
4911;SDS011;2471;47.056;8.350;2023-12-29T07:53:01;10.05;;;5.70;;
4911;SDS011;2471;47.056;8.350;2023-12-29T07:55:28;6.07;;;4.60;;
4911;SDS011;2471;47.056;8.350;2023-12-29T07:57:54;6.72;;;6.00;;
4911;SDS011;2471;47.056;8.350;2023-12-29T08:00:20;6.28;;;5.40;;
4911;SDS011;2471;47.056;8.350;2023-12-29T08:02:47;5.90;;;4.93;;
4911;SDS011;2471;47.056;8.350;2023-12-29T08:05:13;5.60;;;4.72;;
4911;SDS011;2471;47.056;8.350;2023-12-29T08:07:40;7.20;;;5.00;;
4911;SDS011;2471;47.056;8.350;2023-12-29T08:10:06;6.15;;;4.85;;
4911;SDS011;2471;47.056;8.350;2023-12-29T08:12:33;5.78;;;5.00;;
4911;SDS011;2471;47.056;8.350;2023-12-29T08:15:00;9.35;;;6.72;;
4911;SDS011;2471;47.056;8.350;2023-12-29T08:17:26;9.35;;;6.75;;
4911;SDS011;2471;47.056;8.350;2023-12-29T08:19:53;9.00;;;5.50;;
4911;SDS011;2471;47.056;8.350;2023-12-29T08:22:19;5.78;;;4.72;;
4911;SDS011;2471;47.056;8.350;2023-12-29T08:24:45;6.25;;;5.20;;
4911;SDS011;2471;47.056;8.350;2023-12-29T08:27:14;6.10;;;4.50;;
4911;SDS011;2471;47.056;8.350;2023-12-29T08:29:40;5.87;;;5.10;;
4911;SDS011;2471;47.056;8.350;2023-12-29T08:32:06;6.80;;;5.55;;
4911;SDS011;2471;47.056;8.350;2023-12-29T08:34:32;5.10;;;4.60;;
4911;SDS011;2471;47.056;8.350;2023-12-29T08:37:03;6.32;;;4.60;;
4911;SDS011;2471;47.056;8.350;2023-12-29T08:39:29;11.07;;;5.18;;
4911;SDS011;2471;47.056;8.350;2023-12-29T08:41:54;8.38;;;6.97;;
4911;SDS011;2471;47.056;8.350;2023-12-29T08:44:20;6.20;;;5.60;;
4911;SDS011;2471;47.056;8.350;2023-12-29T08:46:46;5.78;;;4.55;;
4911;SDS011;2471;47.056;8.350;2023-12-29T08:49:12;5.30;;;4.80;;
4911;SDS011;2471;47.056;8.350;2023-12-29T08:51:38;5.15;;;4.65;;
4911;SDS011;2471;47.056;8.350;2023-12-29T08:54:04;7.05;;;5.20;;
4911;SDS011;2471;47.056;8.350;2023-12-29T08:56:30;6.15;;;4.65;;
4911;SDS011;2471;47.056;8.350;2023-12-29T08:58:56;7.40;;;5.07;;
4911;SDS011;2471;47.056;8.350;2023-12-29T09:01:22;5.30;;;4.80;;
4911;SDS011;2471;47.056;8.350;2023-12-29T09:03:48;5.65;;;4.57;;
4911;SDS011;2471;47.056;8.350;2023-12-29T09:06:14;6.10;;;5.10;;
4911;SDS011;2471;47.056;8.350;2023-12-29T09:08:40;5.43;;;4.50;;
4911;SDS011;2471;47.056;8.350;2023-12-29T09:11:06;5.47;;;4.65;;
4911;SDS011;2471;47.056;8.350;2023-12-29T09:13:32;5.30;;;4.80;;
4911;SDS011;2471;47.056;8.350;2023-12-29T09:15:58;6.55;;;5.10;;
4911;SDS011;2471;47.056;8.350;2023-12-29T09:18:24;6.18;;;4.70;;
4911;SDS011;2471;47.056;8.350;2023-12-29T09:20:50;4.93;;;4.43;;
4911;SDS011;2471;47.056;8.350;2023-12-29T09:23:17;5.90;;;5.10;;
4911;SDS011;2471;47.056;8.350;2023-12-29T09:25:42;5.88;;;5.05;;
4911;SDS011;2471;47.056;8.350;2023-12-29T09:28:08;5.15;;;4.75;;
4911;SDS011;2471;47.056;8.350;2023-12-29T09:30:34;5.05;;;4.55;;
4911;SDS011;2471;47.056;8.350;2023-12-29T09:33:00;6.60;;;4.72;;
4911;SDS011;2471;47.056;8.350;2023-12-29T09:35:26;7.00;;;5.20;;
4911;SDS011;2471;47.056;8.350;2023-12-29T09:37:52;5.00;;;4.40;;
4911;SDS011;2471;47.056;8.350;2023-12-29T09:40:18;5.50;;;5.00;;
4911;SDS011;2471;47.056;8.350;2023-12-29T09:42:45;5.18;;;4.50;;
4911;SDS011;2471;47.056;8.350;2023-12-29T09:45:12;5.30;;;4.00;;
4911;SDS011;2471;47.056;8.350;2023-12-29T09:47:39;4.82;;;4.40;;
4911;SDS011;2471;47.056;8.350;2023-12-29T09:50:10;5.60;;;4.70;;
4911;SDS011;2471;47.056;8.350;2023-12-29T09:52:36;4.80;;;4.30;;
4911;SDS011;2471;47.056;8.350;2023-12-29T09:55:03;4.70;;;4.30;;
4911;SDS011;2471;47.056;8.350;2023-12-29T09:57:29;4.80;;;4.40;;
4911;SDS011;2471;47.056;8.350;2023-12-29T09:59:55;6.30;;;4.00;;
4911;SDS011;2471;47.056;8.350;2023-12-29T10:02:22;4.82;;;4.30;;
4911;SDS011;2471;47.056;8.350;2023-12-29T10:04:48;4.55;;;4.15;;
4911;SDS011;2471;47.056;8.350;2023-12-29T10:07:24;6.30;;;4.70;;
4911;SDS011;2471;47.056;8.350;2023-12-29T10:09:52;4.65;;;4.13;;
4911;SDS011;2471;47.056;8.350;2023-12-29T10:12:18;5.30;;;4.80;;
4911;SDS011;2471;47.056;8.350;2023-12-29T10:14:49;6.73;;;4.60;;
4911;SDS011;2471;47.056;8.350;2023-12-29T10:17:37;6.47;;;5.13;;
4911;SDS011;2471;47.056;8.350;2023-12-29T10:20:08;6.65;;;4.90;;
4911;SDS011;2471;47.056;8.350;2023-12-29T10:22:41;5.20;;;4.40;;
4911;SDS011;2471;47.056;8.350;2023-12-29T10:25:10;5.85;;;4.78;;
4911;SDS011;2471;47.056;8.350;2023-12-29T10:27:36;4.90;;;4.40;;
4911;SDS011;2471;47.056;8.350;2023-12-29T10:30:02;7.20;;;4.90;;
4911;SDS011;2471;47.056;8.350;2023-12-29T10:32:28;5.28;;;4.60;;
4911;SDS011;2471;47.056;8.350;2023-12-29T10:35:07;4.43;;;4.03;;
4911;SDS011;2471;47.056;8.350;2023-12-29T10:37:34;15.80;;;8.80;;
4911;SDS011;2471;47.056;8.350;2023-12-29T10:40:01;7.05;;;6.05;;
4911;SDS011;2471;47.056;8.350;2023-12-29T10:42:27;5.47;;;4.35;;
4911;SDS011;2471;47.056;8.350;2023-12-29T10:45:06;4.45;;;4.10;;
4911;SDS011;2471;47.056;8.350;2023-12-29T10:47:33;5.10;;;4.60;;
4911;SDS011;2471;47.056;8.350;2023-12-29T10:50:00;5.75;;;4.57;;
4911;SDS011;2471;47.056;8.350;2023-12-29T10:52:26;7.32;;;4.72;;
4911;SDS011;2471;47.056;8.350;2023-12-29T10:55:03;4.50;;;4.10;;
4911;SDS011;2471;47.056;8.350;2023-12-29T10:57:29;5.10;;;4.40;;
4911;SDS011;2471;47.056;8.350;2023-12-29T10:59:55;5.80;;;4.20;;
4911;SDS011;2471;47.056;8.350;2023-12-29T11:02:21;5.20;;;3.83;;
4911;SDS011;2471;47.056;8.350;2023-12-29T11:04:47;4.43;;;4.03;;
4911;SDS011;2471;47.056;8.350;2023-12-29T11:07:15;4.60;;;4.10;;
4911;SDS011;2471;47.056;8.350;2023-12-29T11:09:41;5.63;;;4.35;;
4911;SDS011;2471;47.056;8.350;2023-12-29T11:12:07;7.78;;;5.07;;
4911;SDS011;2471;47.056;8.350;2023-12-29T11:14:35;3.80;;;3.40;;
4911;SDS011;2471;47.056;8.350;2023-12-29T11:17:01;4.22;;;3.67;;
4911;SDS011;2471;47.056;8.350;2023-12-29T11:19:29;4.72;;;4.22;;
4911;SDS011;2471;47.056;8.350;2023-12-29T11:21:55;3.33;;;3.03;;
4911;SDS011;2471;47.056;8.350;2023-12-29T11:24:21;5.20;;;4.10;;
4911;SDS011;2471;47.056;8.350;2023-12-29T11:26:50;7.53;;;5.07;;
4911;SDS011;2471;47.056;8.350;2023-12-29T11:29:17;5.32;;;4.80;;
4911;SDS011;2471;47.056;8.350;2023-12-29T11:31:44;6.65;;;5.35;;
4911;SDS011;2471;47.056;8.350;2023-12-29T11:34:16;5.30;;;4.60;;
4911;SDS011;2471;47.056;8.350;2023-12-29T11:36:43;6.60;;;4.50;;
4911;SDS011;2471;47.056;8.350;2023-12-29T11:39:15;6.38;;;4.78;;
4911;SDS011;2471;47.056;8.350;2023-12-29T11:41:46;9.52;;;5.75;;
4911;SDS011;2471;47.056;8.350;2023-12-29T11:44:14;4.80;;;4.30;;
4911;SDS011;2471;47.056;8.350;2023-12-29T11:46:50;5.78;;;4.45;;
4911;SDS011;2471;47.056;8.350;2023-12-29T11:49:16;5.10;;;3.70;;
4911;SDS011;2471;47.056;8.350;2023-12-29T11:51:43;4.55;;;3.97;;
4911;SDS011;2471;47.056;8.350;2023-12-29T11:54:09;5.30;;;4.18;;
4911;SDS011;2471;47.056;8.350;2023-12-29T12:01:43;4.65;;;4.25;;
4911;SDS011;2471;47.056;8.350;2023-12-29T12:06:54;8.38;;;4.85;;
4911;SDS011;2471;47.056;8.350;2023-12-29T12:09:22;5.37;;;4.60;;
4911;SDS011;2471;47.056;8.350;2023-12-29T12:11:49;3.90;;;3.60;;
4911;SDS011;2471;47.056;8.350;2023-12-29T12:17:00;4.97;;;4.47;;
4911;SDS011;2471;47.056;8.350;2023-12-29T12:19:26;4.70;;;4.30;;
4911;SDS011;2471;47.056;8.350;2023-12-29T12:21:54;5.13;;;3.75;;
4911;SDS011;2471;47.056;8.350;2023-12-29T12:24:21;3.83;;;3.40;;
4911;SDS011;2471;47.056;8.350;2023-12-29T12:26:47;4.25;;;3.85;;
4911;SDS011;2471;47.056;8.350;2023-12-29T12:29:24;3.96;;;3.66;;
4911;SDS011;2471;47.056;8.350;2023-12-29T12:31:54;4.10;;;3.67;;
4911;SDS011;2471;47.056;8.350;2023-12-29T12:34:20;3.85;;;3.47;;
4911;SDS011;2471;47.056;8.350;2023-12-29T12:36:50;5.18;;;4.00;;
4911;SDS011;2471;47.056;8.350;2023-12-29T12:39:16;6.80;;;3.83;;
4911;SDS011;2471;47.056;8.350;2023-12-29T12:41:42;3.45;;;3.15;;
4911;SDS011;2471;47.056;8.350;2023-12-29T12:44:12;3.40;;;3.10;;
4911;SDS011;2471;47.056;8.350;2023-12-29T12:46:40;3.60;;;3.30;;
4911;SDS011;2471;47.056;8.350;2023-12-29T12:49:07;3.28;;;2.90;;
4911;SDS011;2471;47.056;8.350;2023-12-29T12:51:33;3.83;;;2.55;;
4911;SDS011;2471;47.056;8.350;2023-12-29T12:53:59;2.50;;;2.30;;
4911;SDS011;2471;47.056;8.350;2023-12-29T12:56:25;2.33;;;2.13;;
4911;SDS011;2471;47.056;8.350;2023-12-29T12:58:54;2.65;;;2.45;;
4911;SDS011;2471;47.056;8.350;2023-12-29T13:01:20;2.63;;;2.42;;
4911;SDS011;2471;47.056;8.350;2023-12-29T13:03:46;3.67;;;3.05;;
4911;SDS011;2471;47.056;8.350;2023-12-29T13:06:12;4.80;;;3.20;;
4911;SDS011;2471;47.056;8.350;2023-12-29T13:08:38;9.05;;;5.95;;
4911;SDS011;2471;47.056;8.350;2023-12-29T13:11:04;6.13;;;4.30;;
4911;SDS011;2471;47.056;8.350;2023-12-29T13:13:37;9.17;;;6.07;;
4911;SDS011;2471;47.056;8.350;2023-12-29T13:16:03;5.88;;;4.93;;
4911;SDS011;2471;47.056;8.350;2023-12-29T13:18:29;6.80;;;5.18;;
4911;SDS011;2471;47.056;8.350;2023-12-29T13:20:59;6.50;;;4.90;;
4911;SDS011;2471;47.056;8.350;2023-12-29T13:23:26;4.07;;;3.67;;
4911;SDS011;2471;47.056;8.350;2023-12-29T13:26:05;7.95;;;5.40;;
4911;SDS011;2471;47.056;8.350;2023-12-29T13:28:33;7.20;;;4.90;;
4911;SDS011;2471;47.056;8.350;2023-12-29T13:30:59;6.97;;;4.97;;
4911;SDS011;2471;47.056;8.350;2023-12-29T13:36:33;5.22;;;3.80;;
4911;SDS011;2471;47.056;8.350;2023-12-29T13:39:15;5.05;;;4.40;;
4911;SDS011;2471;47.056;8.350;2023-12-29T13:41:45;5.63;;;4.60;;
4911;SDS011;2471;47.056;8.350;2023-12-29T13:44:11;6.10;;;5.00;;
4911;SDS011;2471;47.056;8.350;2023-12-29T13:46:37;6.15;;;4.30;;
4911;SDS011;2471;47.056;8.350;2023-12-29T13:49:04;6.55;;;3.95;;
4911;SDS011;2471;47.056;8.350;2023-12-29T13:51:31;6.13;;;4.70;;
4911;SDS011;2471;47.056;8.350;2023-12-29T13:54:01;4.72;;;4.18;;
4911;SDS011;2471;47.056;8.350;2023-12-29T13:56:28;4.88;;;3.47;;
4911;SDS011;2471;47.056;8.350;2023-12-29T13:58:54;3.95;;;3.40;;
4911;SDS011;2471;47.056;8.350;2023-12-29T14:01:20;4.38;;;3.50;;
4911;SDS011;2471;47.056;8.350;2023-12-29T14:03:46;5.82;;;3.50;;
4911;SDS011;2471;47.056;8.350;2023-12-29T14:06:18;3.55;;;3.25;;
4911;SDS011;2471;47.056;8.350;2023-12-29T14:08:46;3.35;;;2.75;;
4911;SDS011;2471;47.056;8.350;2023-12-29T14:11:12;3.30;;;3.00;;
4911;SDS011;2471;47.056;8.350;2023-12-29T14:13:41;3.67;;;3.38;;
4911;SDS011;2471;47.056;8.350;2023-12-29T14:16:08;2.90;;;2.70;;
4911;SDS011;2471;47.056;8.350;2023-12-29T14:23:59;2.60;;;2.40;;
4911;SDS011;2471;47.056;8.350;2023-12-29T14:26:25;2.42;;;2.22;;
4911;SDS011;2471;47.056;8.350;2023-12-29T14:29:07;3.03;;;2.72;;
4911;SDS011;2471;47.056;8.350;2023-12-29T14:31:38;3.50;;;2.30;;
4911;SDS011;2471;47.056;8.350;2023-12-29T14:34:04;2.80;;;2.60;;
4911;SDS011;2471;47.056;8.350;2023-12-29T14:36:31;4.43;;;2.95;;
4911;SDS011;2471;47.056;8.350;2023-12-29T14:38:57;3.20;;;2.90;;
4911;SDS011;2471;47.056;8.350;2023-12-29T14:41:23;2.70;;;2.50;;
4911;SDS011;2471;47.056;8.350;2023-12-29T14:43:49;6.93;;;2.60;;
4911;SDS011;2471;47.056;8.350;2023-12-29T14:46:15;6.00;;;2.40;;
4911;SDS011;2471;47.056;8.350;2023-12-29T14:48:41;3.05;;;2.70;;
4911;SDS011;2471;47.056;8.350;2023-12-29T14:51:08;2.67;;;2.47;;
4911;SDS011;2471;47.056;8.350;2023-12-29T14:53:33;3.03;;;2.30;;
4911;SDS011;2471;47.056;8.350;2023-12-29T14:55:59;2.60;;;2.40;;
4911;SDS011;2471;47.056;8.350;2023-12-29T14:58:25;2.70;;;2.50;;
4911;SDS011;2471;47.056;8.350;2023-12-29T15:00:52;4.07;;;2.83;;
4911;SDS011;2471;47.056;8.350;2023-12-29T15:03:17;5.67;;;2.93;;
4911;SDS011;2471;47.056;8.350;2023-12-29T15:05:46;4.33;;;2.60;;
4911;SDS011;2471;47.056;8.350;2023-12-29T15:08:12;2.28;;;2.08;;
4911;SDS011;2471;47.056;8.350;2023-12-29T15:10:38;4.00;;;2.40;;
4911;SDS011;2471;47.056;8.350;2023-12-29T15:13:04;3.60;;;3.03;;
4911;SDS011;2471;47.056;8.350;2023-12-29T15:15:32;3.00;;;2.80;;
4911;SDS011;2471;47.056;8.350;2023-12-29T15:17:58;3.30;;;2.90;;
4911;SDS011;2471;47.056;8.350;2023-12-29T15:20:24;3.80;;;2.63;;
4911;SDS011;2471;47.056;8.350;2023-12-29T15:22:50;4.15;;;2.60;;
4911;SDS011;2471;47.056;8.350;2023-12-29T15:25:17;4.07;;;2.60;;
4911;SDS011;2471;47.056;8.350;2023-12-29T15:27:44;2.92;;;2.72;;
4911;SDS011;2471;47.056;8.350;2023-12-29T15:30:10;3.20;;;2.90;;
4911;SDS011;2471;47.056;8.350;2023-12-29T15:32:36;7.60;;;5.32;;